Jemez Springs, Valles Caldera, New Mexico Weather observations

Data are for 10 minute period ending at time listed.
 Day   Time   Solar   Ave.   Ave.  Ave.  Vector  Max.   Baro.   Total    
  of    of     Rad.   Air    Rel.  Wind   Wind   Wind  Press.  Precip.   
Year   Day            Temp.  Hum.  Speed  Dir.   Gust                    
2014   (MST)  Kw/m2    F      %     mph   deg.    mph    mb.     in.     
-------------------------------------------------------------------------
 265   20:30   0.00   64.0    67    3.1    38     4.8   813.4    0.00 
 265   20:40   0.00   63.8    67    0.9   357     3.6   813.7    0.00 
 265   20:50   0.00   63.0    70    0.5    47     3.6   813.9    0.00 
 265   21:00   0.00   63.2    71    2.2   183     5.4   814.0    0.00 
 265   21:10   0.00   65.4    70    4.0   194    11.9   814.0    0.00 
 265   21:20   0.00   66.5    69    5.7   172     9.0   814.1    0.00 
 265   21:30   0.00   66.7    69    6.9   158    11.3   814.1    0.00 
 265   21:40   0.00   66.5    70    5.9   174     9.6   814.0    0.00 
 265   21:50   0.00   66.1    71    5.3   176     9.6   813.9    0.00 
 265   22:00   0.00   66.1    72    6.7   179    10.8   814.0    0.00 
 265   22:10   0.00   65.9    73    5.2   182     9.6   814.1    0.00 
 265   22:20   0.00   65.6    72    7.5   182    12.5   814.2    0.00 
 265   22:30   0.00   65.4    73    7.8   190    16.1   814.2    0.00 
 265   22:40   0.00   65.1    74    5.4   193     9.6   814.2    0.00 
 265   22:50   0.00   64.9    76    4.3   194     8.4   814.3    0.00 
 265   23:00   0.00   64.6    77    5.0   182     9.0   814.3    0.00 
 265   23:10   0.00   64.5    77    5.0   182     7.8   814.3    0.00 
 265   23:20   0.00   64.2    78    4.5   189     7.8   814.3    0.00 
 265   23:30   0.00   63.9    79    3.7   179     8.4   814.2    0.00 
 265   23:40   0.00   63.8    80    2.7   177     5.4   814.3    0.00 
 265   23:50   0.00   63.7    80    4.4   174     7.8   814.2    0.00 
 266    0:00   0.00   63.5    81    3.9   181     7.2   814.2    0.00 
 266    0:10   0.00   63.2    82    1.6   176     3.6   814.3    0.00 
 266    0:20   0.00   63.1    82    0.5   182     2.4   814.3    0.00 
 266    0:30   0.00   62.9    82    0.0     0     0.0   814.3    0.00 
 266    0:40   0.00   62.5    83    0.0     0     0.0   814.3    0.00 
 266    0:50   0.00   62.2    84    0.0     0     0.0   814.3    0.00 
 266    1:00   0.00   61.4    86    1.0    17     2.4   814.2    0.00 
 266    1:10   0.00   60.9    86    0.8     8     3.0   814.1    0.00 
 266    1:20   0.00   60.2    88    1.6     6     3.0   814.0    0.00 
 266    1:30   0.00   60.1    88    0.6    21     2.4   813.8    0.00 
 266    1:40   0.00   60.2    87    3.7    23     6.0   813.7    0.00 
 266    1:50   0.00   60.1    86    2.7    34     4.2   813.5    0.00 
 266    2:00   0.00   59.5    88    3.3    33     6.0   813.5    0.00 
 266    2:10   0.00   59.2    88    3.9    24     7.8   813.4    0.00 
 266    2:20   0.00   59.1    88    3.4    26     5.4   813.4    0.00 
 266    2:30   0.00   58.7    88    3.4    37     6.0   813.4    0.00 
 266    2:40   0.00   58.5    88    2.4     7     4.8   813.4    0.00 
 266    2:50   0.00   58.2    88    2.3   350     4.2   813.6    0.00 
 266    3:00   0.00   57.9    88    2.3     4     4.2   813.7    0.00 
 266    3:10   0.00   57.2    89    1.3    49     3.0   813.7    0.00 
 266    3:20   0.00   56.8    89    2.3   357     4.2   813.8    0.00 
 266    3:30   0.00   56.5    89    1.8    22     3.6   813.8    0.00 
 266    3:40   0.00   55.7    90    1.0    31     3.0   813.9    0.00 
 266    3:50   0.00   55.0    91    0.9    19     4.2   813.8    0.00 
 266    4:00   0.00   54.6    91    2.3    18     4.8   813.8    0.00 
 266    4:10   0.00   53.8    92    1.0    42     2.4   813.9    0.00 
 266    4:20   0.00   53.4    93    1.2   350     2.4   813.9    0.00 
 266    4:30   0.00   53.1    93    0.6    35     1.8   814.0    0.00 
 266    4:40   0.00   52.6    93    1.6   164     3.6   814.1    0.00 
 266    4:50   0.00   52.6    94    1.7    22     4.2   814.2    0.00 
 266    5:00   0.00   53.3    92    3.8    26     5.4   814.2    0.00 
 266    5:10   0.00   53.7    91    5.0    18     7.8   814.3    0.00 
 266    5:20   0.00   54.6    87    5.9    11     8.4   814.3    0.00 
 266    5:30   0.00   55.1    84    5.6     8    10.8   814.3    0.00 
 266    5:40   0.00   55.4    83    4.7     7     8.4   814.3    0.00 
 266    5:50   0.00   56.0    81    5.7     9    11.3   814.3    0.00 
 266    6:00   0.00   56.4    78    6.2     8    11.3   814.3    0.00 
 266    6:10   0.00   56.6    77    6.8     5    10.8   814.3    0.00 
 266    6:20   0.01   56.8    76    7.0     1    12.5   814.3    0.00 
 266    6:30   0.02   56.8    75    7.1     1    12.5   814.3    0.00 
 266    6:40   0.03   57.1    75    5.6   350    12.5   814.4    0.00 
 266    6:50   0.04   57.2    74    6.8   353    11.9   814.5    0.00 
 266    7:00   0.06   57.2    73    7.0   356    11.3   814.5    0.00 
 266    7:10   0.19   57.6    72    5.9     3    11.3   814.5    0.00 
 266    7:20   0.25   59.0    69    4.7   354     8.4   814.6    0.00 
 266    7:30   0.29   61.7    64    3.4   353     6.6   814.7    0.00 
 266    7:40   0.09   60.8    65    2.8    39     4.8   814.7    0.00 
 266    7:50   0.11   59.1    71    2.4    42     4.8   814.7    0.00 
 266    8:00   0.12   59.9    70    0.2    57     2.4   814.8    0.00 
 266    8:10   0.17   60.9    69    1.9   176     4.2   814.8    0.00 
 266    8:20   0.15   61.1    69    2.5   178     4.2   814.8    0.00 
 266    8:30   0.31   62.4    68    2.7   122     4.2   814.7    0.00 
 266    8:40   0.53   65.4    65    4.1   153     6.6   814.7    0.00 
 266    8:50   0.56   65.9    64    5.2   167     8.4   814.6    0.00 
 266    9:00   0.59   66.5    63    4.9   173     7.8   814.6    0.00 
 266    9:10   0.62   68.3    60    5.3   158     9.0   814.5    0.00 
 266    9:20   0.65   68.4    60    6.1   190    10.8   814.3    0.00 
 266    9:30   0.68   68.4    59    6.1   180    10.8   814.3    0.00 
 266    9:40   0.72   69.9    56    6.4   182    11.9   814.2    0.00 
 266    9:50   0.80   70.4    56    7.0   180    11.9   814.1    0.00 
 266   10:00   0.54   70.4    55    6.7   178    11.9   814.1    0.00 
 266   10:10   0.84   71.4    53    7.7   181    12.5   814.0    0.00 
 266   10:20   0.78   72.2    51    6.7   183    13.1   813.9    0.00 
 266   10:30   0.63   73.3    49    6.7   177    11.1   813.8    0.00 
 266   10:40   0.32   73.2    48    5.9   178    11.9   813.7    0.00 
 266   10:50   0.76   73.5    48    6.2   187    11.9   813.7    0.00 
 266   11:00   0.74   74.1    46    7.6   190    14.3   813.6    0.00 
 266   11:10   0.72   76.0    42    6.6   188     9.6   813.4    0.00 
 266   11:20   0.48   76.0    42    5.8   180    11.3   813.5    0.00 
 266   11:30   0.35   74.7    43    4.2   142     9.6   813.5    0.00 
 266   11:40   0.71   76.1    36    4.4   118    10.2   813.2    0.00 
 266   11:50   0.36   77.2    31    5.5    38    16.1   813.2    0.00 
 266   12:00   0.15   75.7    29    8.0   318    13.7   813.1    0.00 
 266   12:10   0.61   76.3    29    3.0   262     9.0   813.0    0.00 
 266   12:20   0.23   78.5    27    4.1    35     9.0   812.9    0.00 
 266   12:30   0.74   77.5    24    5.1   356    10.8   812.8    0.00 
 266   12:40   0.76   79.0    25    6.4   106    13.7   812.6    0.00 
 266   12:50   0.89   79.6    23    6.2   202    12.5   812.4    0.00 
 266   13:00   0.86   80.7    21    4.2   145    11.3   812.3    0.00 
 266   13:10   0.81   80.9    18    6.3    59    17.9   812.2    0.00 
 266   13:20   0.82   81.6    19    5.3    24    10.8   812.1    0.00 
 266   13:30   0.55   82.0    20    4.2   356     9.0   812.0    0.00 
 266   13:40   0.81   81.0    18    5.7   176    16.1   812.0    0.00 
 266   13:50   0.64   81.3    18    7.0   238    19.7   812.0    0.00 
 266   14:00   0.34   79.4    21    5.1   161    13.7   812.0    0.00 
 266   14:10   0.50   78.8    24    7.8   198    16.7   811.9    0.00 
 266   14:20   0.23   79.1    23    4.6   340    12.5   811.8    0.00 
 266   14:30   0.15   77.8    25    5.2    55    10.8   811.6    0.00 
 266   14:40   0.16   77.6    26    3.9    27     7.8   811.6    0.00 
 266   14:50   0.48   78.7    27    4.5     4     9.6   811.3    0.00 
 266   15:00   0.62   81.7    24    5.2   354    12.5   811.3    0.00 
 266   15:10   0.55   80.8    25    5.0    44    13.1   811.3    0.00 
 266   15:20   0.50   81.5    24    4.0   216    11.9   811.3    0.00 
 266   15:30   0.46   82.2    24    3.6   231     7.2   811.3    0.00 
 266   15:40   0.47   82.3    23    5.0   262    10.8   811.2    0.00 
 266   15:50   0.46   82.3    23    6.0    23    16.1   811.2    0.00 
 266   16:00   0.42   80.8    24    6.8   332    18.5   811.2    0.00 
 266   16:10   0.36   80.1    24    4.2   143     9.6   811.1    0.00 
 266   16:20   0.31   80.7    22    4.3   326    11.3   811.0    0.00 
 266   16:30   0.28   81.6    20    5.2   268    10.2   811.0    0.00 
 266   16:40   0.17   80.9    20    1.7   222     6.6   810.9    0.00 
 266   16:50   0.03   78.4    21    3.5   267     7.8   810.9    0.00 
 266   17:00   0.02   77.2    22    5.0    31    10.2   810.8    0.00 
 266   17:10   0.02   76.6    22    6.5    17    14.3   810.8    0.00 
 266   17:20   0.02   76.6    21    5.2    22    13.1   810.7    0.00 
 266   17:30   0.01   76.2    22    4.4    35    10.2   810.7    0.00 
 266   17:40   0.01   75.9    22    3.2   357     6.0   810.7    0.00 
 266   17:50   0.01   74.8    24    1.3   342     3.6   810.7    0.00 
 266   18:00   0.01   72.0    26    2.1    37     4.8   810.7    0.00 
 266   18:10   0.00   70.8    28    2.4   322     4.8   810.8    0.00 
 266   18:20   0.00   69.5    29    2.6   330     4.8   811.0    0.00 
 266   18:30   0.00   69.8    28    4.4   320     7.2   811.1    0.00 
 266   18:40   0.00   69.5    30    2.9    31     4.8   811.2    0.00 
 266   18:50   0.00   67.2    34    2.7    42     4.2   811.3    0.00 
 266   19:00   0.00   65.6    36    1.5    38     3.0   811.4    0.00 
 266   19:10   0.00   64.4    38    2.1    32     4.8   811.6    0.00 
 266   19:20   0.00   63.8    38    2.8    38     4.8   811.8    0.00 
 266   19:30   0.00   64.1    37    3.6    35     6.0   812.1    0.00 
 266   19:40   0.00   64.2    37    5.2    23     9.6   812.2    0.00 
 266   19:50   0.00   65.4    35    6.8   359    11.9   812.4    0.00 
 266   20:00   0.00   65.8    34    6.3   356    12.5   812.5    0.00 
 266   20:10   0.00   65.1    35    6.1     5    10.8   812.5    0.00 
 266   20:20   0.00   64.3    36    6.7    12    10.8   812.6    0.00 

Return to Jemez Springs, Valles Caldera graphs page.


Western Regional Climate Center,wrcc@dri.edu